San Jose, California
Current Conditions -  °F | °C
As of 4:53 AM on Monday 20 Oct 2014 (Local Time) from KSJC Reporting Station
Overcast Overcast  
Wind Chill: 17°   Ceiling: 2100
Heat Index: 17°   Visibility: 10mi
Dew Point: 13°   Wind: 0mph
Humidity: 80%   Direction: NA
Pressure: 29.91"   Gusts: NA
Location:  37.35°N, 121.9°W
Report Text: KSJC 201153Z AUTO 00000KT 10SM OVC021 17/13 A2991 RMK AO2 SLP128 T01670133 10167 20156 56004
Loading
Personal Weather Stations






























Interactive Weather Map
Tropical Storm Tracking
New forecast layout! Learn more

10-Day Weather Forecast

Advertisements
Track Severe Weather on mobile